createdAt,value
2018-06-05T00:00:01.181Z,20.4
2018-06-05T00:00:05.385Z,20.41
2018-06-05T00:00:09.422Z,20.42
2018-06-05T00:00:13.628Z,20.4
2018-06-05T00:00:17.617Z,20.41
2018-06-05T00:00:21.720Z,20.41
2018-06-05T00:00:40.856Z,20.4
2018-06-05T00:00:44.960Z,20.4
2018-06-05T00:00:49.055Z,20.4
2018-06-05T00:00:53.048Z,20.4
2018-06-05T00:00:57.252Z,20.4
2018-06-05T00:01:01.453Z,20.4
2018-06-05T00:01:05.553Z,20.39
2018-06-05T00:01:09.862Z,20.4
2018-06-05T00:01:14.071Z,20.4
2018-06-05T00:01:18.295Z,20.39
2018-06-05T00:01:22.496Z,20.39
2018-06-05T00:01:26.599Z,20.4
2018-06-05T00:01:30.685Z,20.39
2018-06-05T00:01:34.897Z,20.39
2018-06-05T00:01:39.102Z,20.39
2018-06-05T00:01:43.407Z,20.4
2018-06-05T00:01:47.615Z,20.39
2018-06-05T00:01:51.708Z,20.39
2018-06-05T00:01:55.807Z,20.39
2018-06-05T00:02:00.111Z,20.39
2018-06-05T00:02:04.267Z,20.39
2018-06-05T00:02:08.261Z,20.39
2018-06-05T00:02:12.362Z,20.39
2018-06-05T00:02:16.351Z,20.38
2018-06-05T00:02:20.571Z,20.4
2018-06-05T00:02:24.777Z,20.39
2018-06-05T00:02:29.082Z,20.4
2018-06-05T00:02:33.182Z,20.39
2018-06-05T00:02:37.181Z,20.39
2018-06-05T00:02:41.283Z,20.38
2018-06-05T00:02:45.375Z,20.38
2018-06-05T00:02:49.582Z,20.38
2018-06-05T00:02:53.787Z,20.39
2018-06-05T00:02:57.881Z,20.39
2018-06-05T00:03:02.187Z,20.39
2018-06-05T00:03:06.078Z,20.38
2018-06-05T00:03:10.393Z,20.38
2018-06-05T00:03:14.488Z,20.38
2018-06-05T00:03:18.690Z,20.38
2018-06-05T00:03:22.791Z,20.38
2018-06-05T00:03:27.105Z,20.38
2018-06-05T00:03:31.413Z,20.38
2018-06-05T00:03:35.402Z,20.38
2018-06-05T00:03:39.601Z,20.38
2018-06-05T00:03:43.799Z,20.38
2018-06-05T00:03:48.005Z,20.37
2018-06-05T00:03:52.099Z,20.38
2018-06-05T00:03:56.409Z,20.38
2018-06-05T00:04:00.726Z,20.37
2018-06-05T00:04:04.944Z,20.38
2018-06-05T00:04:09.153Z,20.37
2018-06-05T00:04:13.469Z,20.37
2018-06-05T00:04:17.563Z,20.37
2018-06-05T00:04:21.768Z,20.37
2018-06-05T00:04:25.996Z,20.37
2018-06-05T00:04:30.095Z,20.37
2018-06-05T00:04:34.406Z,20.36
2018-06-05T00:04:38.504Z,20.37
2018-06-05T00:04:42.598Z,20.37
2018-06-05T00:04:46.923Z,20.37
2018-06-05T00:04:51.249Z,20.36
2018-06-05T00:04:55.472Z,20.36
2018-06-05T00:04:59.786Z,20.36
2018-06-05T00:05:03.892Z,20.36
2018-06-05T00:05:08.005Z,20.35
2018-06-05T00:05:12.206Z,20.35
2018-06-05T00:05:16.422Z,20.35
2018-06-05T00:05:20.629Z,20.36
2018-06-05T00:05:24.835Z,20.36
2018-06-05T00:05:28.936Z,20.35
2018-06-05T00:05:33.141Z,20.35
2018-06-05T00:05:37.024Z,20.35
2018-06-05T00:05:41.122Z,20.34
2018-06-05T00:05:45.434Z,20.35
2018-06-05T00:05:49.642Z,20.34
2018-06-05T00:05:53.738Z,20.34
2018-06-05T00:05:57.945Z,20.34
2018-06-05T00:06:02.037Z,20.34
2018-06-05T00:06:05.926Z,20.33
2018-06-05T00:06:10.026Z,20.34
2018-06-05T00:06:14.123Z,20.34
2018-06-05T00:06:18.242Z,20.34
2018-06-05T00:06:22.444Z,20.33
2018-06-05T00:06:26.646Z,20.33
2018-06-05T00:06:30.850Z,20.33
2018-06-05T00:06:35.064Z,20.32
2018-06-05T00:06:39.053Z,20.33
2018-06-05T00:06:43.261Z,20.32
2018-06-05T00:06:47.257Z,20.32
2018-06-05T00:06:51.247Z,20.32
2018-06-05T00:06:55.570Z,20.32
2018-06-05T00:06:59.662Z,20.32
2018-06-05T00:07:03.654Z,20.31
2018-06-05T00:07:07.646Z,20.31
2018-06-05T00:07:11.953Z,20.31
2018-06-05T00:07:16.156Z,20.3
2018-06-05T00:07:20.357Z,20.31
2018-06-05T00:07:24.569Z,20.3
2018-06-05T00:07:28.772Z,20.3
2018-06-05T00:07:33.074Z,20.3
2018-06-05T00:07:37.319Z,20.3
2018-06-05T00:07:41.306Z,20.29
2018-06-05T00:07:45.516Z,20.29
2018-06-05T00:08:04.452Z,20.29
2018-06-05T00:08:08.552Z,20.28
2018-06-05T00:08:12.861Z,20.28
2018-06-05T00:08:17.076Z,20.27
2018-06-05T00:08:21.386Z,20.28
2018-06-05T00:08:25.709Z,20.27
2018-06-05T00:08:30.012Z,20.26
2018-06-05T00:08:34.319Z,20.26
2018-06-05T00:08:38.415Z,20.26
2018-06-05T00:08:42.736Z,20.26
2018-06-05T00:08:46.832Z,20.26
2018-06-05T00:08:50.941Z,20.26
2018-06-05T00:08:55.036Z,20.26
2018-06-05T00:08:59.234Z,20.25
2018-06-05T00:09:03.337Z,20.26
2018-06-05T00:09:07.541Z,20.25
2018-06-05T00:09:11.741Z,20.25
2018-06-05T00:09:15.949Z,20.25
2018-06-05T00:09:20.042Z,20.24
2018-06-05T00:09:24.352Z,20.25
2018-06-05T00:09:28.556Z,20.25
2018-06-05T00:09:32.760Z,20.25
2018-06-05T00:09:37.065Z,20.24
2018-06-05T00:09:41.157Z,20.23
2018-06-05T00:09:45.496Z,20.23
2018-06-05T00:09:49.801Z,20.23
2018-06-05T00:09:54.126Z,20.23
2018-06-05T00:09:58.333Z,20.22
2018-06-05T00:10:02.686Z,20.22
2018-06-05T00:10:06.568Z,20.23
2018-06-05T00:10:10.667Z,20.22
2018-06-05T00:10:14.875Z,20.22
2018-06-05T00:10:18.964Z,20.22
2018-06-05T00:10:23.276Z,20.21
2018-06-05T00:10:27.482Z,20.21
2018-06-05T00:10:31.810Z,20.21
2018-06-05T00:10:36.013Z,20.21
2018-06-05T00:10:40.218Z,20.21
2018-06-05T00:10:44.219Z,20.2
2018-06-05T00:10:48.530Z,20.19
2018-06-05T00:10:52.635Z,20.19
2018-06-05T00:10:56.943Z,20.19
2018-06-05T00:11:01.241Z,20.19
2018-06-05T00:11:05.278Z,20.19
2018-06-05T00:11:09.590Z,20.19
2018-06-05T00:11:13.788Z,20.19
2018-06-05T00:11:18.102Z,20.19
2018-06-05T00:11:22.196Z,20.18
2018-06-05T00:11:26.503Z,20.18
2018-06-05T00:11:30.706Z,20.18
2018-06-05T00:11:34.915Z,20.18
2018-06-05T00:11:39.130Z,20.17
2018-06-05T00:11:43.330Z,20.17
2018-06-05T00:11:47.533Z,20.16
2018-06-05T00:11:51.633Z,20.17
2018-06-05T00:11:55.934Z,20.16
2018-06-05T00:12:00.241Z,20.16
2018-06-05T00:12:04.335Z,20.16
2018-06-05T00:12:08.543Z,20.15
2018-06-05T00:12:12.745Z,20.16
2018-06-05T00:12:16.944Z,20.16
2018-06-05T00:12:21.150Z,20.15
2018-06-05T00:12:25.458Z,20.15
2018-06-05T00:12:29.660Z,20.14
2018-06-05T00:12:33.865Z,20.14
2018-06-05T00:12:38.068Z,20.14
2018-06-05T00:12:42.271Z,20.14
2018-06-05T00:12:46.573Z,20.14
2018-06-05T00:12:50.882Z,20.13
2018-06-05T00:12:55.089Z,20.13
2018-06-05T00:12:59.392Z,20.13
2018-06-05T00:13:03.277Z,20.13
2018-06-05T00:13:07.487Z,20.12
2018-06-05T00:13:11.695Z,20.12
2018-06-05T00:13:16.006Z,20.12
2018-06-05T00:13:20.208Z,20.11
2018-06-05T00:13:24.515Z,20.11
2018-06-05T00:13:28.719Z,20.11
2018-06-05T00:13:32.915Z,20.1
2018-06-05T00:13:37.008Z,20.1
2018-06-05T00:13:41.105Z,20.1
2018-06-05T00:13:45.405Z,20.1
2018-06-05T00:13:49.716Z,20.09
2018-06-05T00:13:53.704Z,20.09
2018-06-05T00:13:57.909Z,20.08
2018-06-05T00:14:02.112Z,20.09
2018-06-05T00:14:06.312Z,20.08
2018-06-05T00:14:10.525Z,20.08
2018-06-05T00:14:14.830Z,20.08
2018-06-05T00:14:19.027Z,20.08
2018-06-05T00:14:23.121Z,20.07
2018-06-05T00:14:27.217Z,20.07
2018-06-05T00:14:50.557Z,20.06
2018-06-05T00:14:54.763Z,20.06
2018-06-05T00:14:58.970Z,20.05
2018-06-05T00:15:03.189Z,20.05
2018-06-05T00:15:07.174Z,20.05
2018-06-05T00:15:11.372Z,20.05
2018-06-05T00:15:15.685Z,20.04
2018-06-05T00:15:19.896Z,20.04
2018-06-05T00:15:24.108Z,20.04
2018-06-05T00:15:28.416Z,20.03
2018-06-05T00:15:32.632Z,20.03
2018-06-05T00:15:36.829Z,20.03
2018-06-05T00:15:41.135Z,20.03
2018-06-05T00:15:45.335Z,20.03
2018-06-05T00:15:49.436Z,20.02
2018-06-05T00:15:53.428Z,20.01
2018-06-05T00:15:57.740Z,20.01
2018-06-05T00:16:02.046Z,20.02
2018-06-05T00:16:06.147Z,20.01
2018-06-05T00:16:10.345Z,20
2018-06-05T00:16:14.549Z,20.01
2018-06-05T00:16:18.649Z,20.01
2018-06-05T00:16:22.748Z,20
2018-06-05T00:16:26.953Z,20.01
2018-06-05T00:16:31.158Z,20
2018-06-05T00:16:35.464Z,20
2018-06-05T00:16:39.457Z,20
2018-06-05T00:16:43.447Z,19.99
2018-06-05T00:16:47.754Z,19.99
2018-06-05T00:16:51.851Z,19.99
2018-06-05T00:16:56.056Z,19.98
2018-06-05T00:17:00.264Z,19.98
2018-06-05T00:17:04.471Z,19.98
2018-06-05T00:17:08.677Z,19.98
2018-06-05T00:17:12.989Z,19.97
2018-06-05T00:17:17.300Z,19.97
2018-06-05T00:17:21.614Z,19.96
2018-06-05T00:17:25.819Z,19.96
2018-06-05T00:17:30.127Z,19.97
2018-06-05T00:17:34.219Z,19.96
2018-06-05T00:17:38.310Z,19.95
2018-06-05T00:17:42.410Z,19.94
2018-06-05T00:17:46.613Z,19.95
2018-06-05T00:17:50.933Z,19.94
2018-06-05T00:17:55.249Z,19.94
2018-06-05T00:17:59.456Z,19.94
2018-06-05T00:18:03.662Z,19.93
2018-06-05T00:18:08.012Z,19.93
2018-06-05T00:18:12.017Z,19.93
2018-06-05T00:18:16.330Z,19.93
2018-06-05T00:18:20.425Z,19.92
2018-06-05T00:18:24.623Z,19.92
2018-06-05T00:18:28.722Z,19.93
2018-06-05T00:18:33.030Z,19.92
2018-06-05T00:18:37.234Z,19.92
2018-06-05T00:18:41.330Z,19.92
2018-06-05T00:18:45.426Z,19.91
2018-06-05T00:18:49.628Z,19.91
2018-06-05T00:18:53.826Z,19.91
2018-06-05T00:18:58.133Z,19.91
2018-06-05T00:19:02.442Z,19.91
2018-06-05T00:19:06.663Z,19.91
2018-06-05T00:19:10.982Z,19.9
2018-06-05T00:19:15.083Z,19.9
2018-06-05T00:19:19.394Z,19.9
2018-06-05T00:19:23.713Z,19.89
2018-06-05T00:19:27.813Z,19.89
2018-06-05T00:19:32.012Z,19.89
2018-06-05T00:19:36.218Z,19.88
2018-06-05T00:19:40.411Z,19.88
2018-06-05T00:19:44.613Z,19.88
2018-06-05T00:19:48.813Z,19.87
2018-06-05T00:19:53.017Z,19.87
2018-06-05T00:19:57.114Z,19.87
2018-06-05T00:20:01.312Z,19.86
2018-06-05T00:20:05.518Z,19.86
2018-06-05T00:20:09.514Z,19.86
2018-06-05T00:20:13.819Z,19.84
2018-06-05T00:20:18.027Z,19.85
2018-06-05T00:20:22.018Z,19.84
2018-06-05T00:20:26.221Z,19.84
2018-06-05T00:20:30.530Z,19.84
2018-06-05T00:20:34.840Z,19.83
2018-06-05T00:20:39.146Z,19.83
2018-06-05T00:20:43.343Z,19.82
2018-06-05T00:20:47.654Z,19.82
2018-06-05T00:20:51.763Z,19.81
2018-06-05T00:20:56.069Z,19.81
2018-06-05T00:21:00.376Z,19.8
2018-06-05T00:21:04.592Z,19.8
2018-06-05T00:21:08.797Z,19.79
2018-06-05T00:21:12.894Z,19.79
2018-06-05T00:21:16.987Z,19.79
2018-06-05T00:21:21.188Z,19.79
2018-06-05T00:21:25.399Z,19.78
2018-06-05T00:21:29.599Z,19.77
2018-06-05T00:21:48.636Z,19.76
2018-06-05T00:21:52.943Z,19.75
2018-06-05T00:21:57.256Z,19.74
2018-06-05T00:22:01.348Z,19.74
2018-06-05T00:22:05.552Z,19.73
2018-06-05T00:22:09.543Z,19.73
2018-06-05T00:22:13.853Z,19.73
2018-06-05T00:22:17.947Z,19.72
2018-06-05T00:22:22.255Z,19.71
2018-06-05T00:22:26.461Z,19.72
2018-06-05T00:22:30.659Z,19.72
2018-06-05T00:22:34.861Z,19.71
2018-06-05T00:22:38.953Z,19.7
2018-06-05T00:22:43.049Z,19.71
2018-06-05T00:22:47.353Z,19.69
2018-06-05T00:22:51.663Z,19.69
2018-06-05T00:22:55.970Z,19.68
2018-06-05T00:23:00.276Z,19.68
2018-06-05T00:23:04.477Z,19.68
2018-06-05T00:23:08.787Z,19.67
2018-06-05T00:23:13.098Z,19.67
2018-06-05T00:23:17.310Z,19.66
2018-06-05T00:23:21.514Z,19.67
2018-06-05T00:23:25.753Z,19.66
2018-06-05T00:23:29.957Z,19.66
2018-06-05T00:23:34.159Z,19.65
2018-06-05T00:23:38.261Z,19.64
2018-06-05T00:23:42.575Z,19.64
2018-06-05T00:23:46.671Z,19.64
2018-06-05T00:23:50.870Z,19.63
2018-06-05T00:23:55.080Z,19.62
2018-06-05T00:23:59.378Z,19.63
2018-06-05T00:24:03.584Z,19.61
2018-06-05T00:24:07.723Z,19.62
2018-06-05T00:24:11.928Z,19.61
2018-06-05T00:24:16.133Z,19.61
2018-06-05T00:24:20.453Z,19.6
2018-06-05T00:24:24.659Z,19.6
2018-06-05T00:24:28.872Z,19.59
2018-06-05T00:24:33.181Z,19.6
2018-06-05T00:24:37.382Z,19.58
2018-06-05T00:24:41.582Z,19.59
2018-06-05T00:24:45.781Z,19.58
2018-06-05T00:24:49.880Z,19.58
2018-06-05T00:24:54.081Z,19.58
2018-06-05T00:24:58.399Z,19.57
2018-06-05T00:25:02.721Z,19.57
2018-06-05T00:25:21.651Z,19.56
2018-06-05T00:25:25.959Z,19.55
2018-06-05T00:25:30.266Z,19.55
2018-06-05T00:25:34.363Z,19.54
2018-06-05T00:25:38.675Z,19.53
2018-06-05T00:25:42.876Z,19.53
2018-06-05T00:25:47.238Z,19.54
2018-06-05T00:25:51.553Z,19.53
2018-06-05T00:25:55.856Z,19.53
2018-06-05T00:26:00.061Z,19.52
2018-06-05T00:26:04.206Z,19.51
2018-06-05T00:26:08.323Z,19.51
2018-06-05T00:26:12.649Z,19.51
2018-06-05T00:26:16.958Z,19.51
2018-06-05T00:26:21.261Z,19.51
2018-06-05T00:26:25.566Z,19.49
2018-06-05T00:26:29.769Z,19.5
2018-06-05T00:26:33.973Z,19.49
2018-06-05T00:26:38.282Z,19.49
2018-06-05T00:26:42.592Z,19.48
2018-06-05T00:26:46.690Z,19.48
2018-06-05T00:26:50.745Z,19.47
2018-06-05T00:26:55.376Z,19.47
2018-06-05T00:27:00.105Z,19.46
2018-06-05T00:27:04.190Z,19.46
2018-06-05T00:27:08.506Z,19.46
2018-06-05T00:27:12.719Z,19.45
2018-06-05T00:27:16.939Z,19.45
2018-06-05T00:27:21.140Z,19.44
2018-06-05T00:27:25.242Z,19.44
2018-06-05T00:27:29.454Z,19.44
2018-06-05T00:27:33.659Z,19.43
2018-06-05T00:27:37.970Z,19.43
2018-06-05T00:27:42.279Z,19.42
2018-06-05T00:27:46.377Z,19.42
2018-06-05T00:27:50.580Z,19.41
2018-06-05T00:27:54.785Z,19.41
2018-06-05T00:27:58.987Z,19.41
2018-06-05T00:28:03.200Z,19.41
2018-06-05T00:28:07.298Z,19.4
2018-06-05T00:28:11.507Z,19.4
2018-06-05T00:28:15.714Z,19.4
2018-06-05T00:28:20.027Z,19.39
2018-06-05T00:28:24.250Z,19.39
2018-06-05T00:28:28.350Z,19.38
2018-06-05T00:28:32.659Z,19.37
2018-06-05T00:28:36.646Z,19.38
2018-06-05T00:28:40.847Z,19.38
2018-06-05T00:28:45.158Z,19.36
2018-06-05T00:28:49.470Z,19.36
2018-06-05T00:28:53.675Z,19.36
2018-06-05T00:28:57.882Z,19.36
2018-06-05T00:29:02.195Z,19.35
2018-06-05T00:29:06.504Z,19.35
2018-06-05T00:29:10.715Z,19.34
2018-06-05T00:29:14.914Z,19.35
2018-06-05T00:29:18.942Z,19.34
2018-06-05T00:29:23.242Z,19.34
2018-06-05T00:29:27.437Z,19.34
2018-06-05T00:29:31.636Z,19.32
2018-06-05T00:29:35.631Z,19.32
2018-06-05T00:29:39.832Z,19.33
2018-06-05T00:29:44.151Z,19.32
2018-06-05T00:29:48.356Z,19.32
2018-06-05T00:29:52.557Z,19.32
2018-06-05T00:29:56.872Z,19.31
2018-06-05T00:30:16.018Z,19.29
2018-06-05T00:30:20.328Z,19.28
2018-06-05T00:30:24.431Z,19.29
2018-06-05T00:30:28.635Z,19.27
2018-06-05T00:30:32.956Z,19.28
2018-06-05T00:30:37.159Z,19.28
2018-06-05T00:30:41.359Z,19.27
2018-06-05T00:30:45.668Z,19.27
2018-06-05T00:30:49.977Z,19.26
2018-06-05T00:30:54.078Z,19.26
2018-06-05T00:30:58.285Z,19.26
2018-06-05T00:31:02.276Z,19.25
2018-06-05T00:31:06.486Z,19.25
2018-06-05T00:31:10.798Z,19.24
2018-06-05T00:31:14.787Z,19.25
2018-06-05T00:31:18.984Z,19.24
2018-06-05T00:31:23.184Z,19.23
2018-06-05T00:31:27.173Z,19.23
2018-06-05T00:31:31.476Z,19.23
2018-06-05T00:31:50.616Z,19.23
2018-06-05T00:31:54.815Z,19.21
2018-06-05T00:31:59.029Z,19.21
2018-06-05T00:32:03.233Z,19.2
2018-06-05T00:32:07.435Z,19.2
2018-06-05T00:32:11.755Z,19.2
2018-06-05T00:32:15.956Z,19.2
2018-06-05T00:32:20.177Z,19.19
2018-06-05T00:32:24.377Z,19.19
2018-06-05T00:32:43.522Z,19.18
2018-06-05T00:32:47.723Z,19.18
2018-06-05T00:32:51.928Z,19.18
2018-06-05T00:32:56.245Z,19.17
2018-06-05T00:33:00.445Z,19.17
2018-06-05T00:33:04.436Z,19.16
2018-06-05T00:33:08.425Z,19.16
2018-06-05T00:33:12.733Z,19.17
2018-06-05T00:33:16.941Z,19.16
2018-06-05T00:33:21.143Z,19.16
2018-06-05T00:33:25.458Z,19.16
2018-06-05T00:33:29.768Z,19.15
2018-06-05T00:33:34.074Z,19.15
2018-06-05T00:33:38.382Z,19.15
2018-06-05T00:33:42.682Z,19.14
2018-06-05T00:33:46.984Z,19.14
2018-06-05T00:33:51.090Z,19.14
2018-06-05T00:33:55.184Z,19.14
2018-06-05T00:33:59.171Z,19.14
2018-06-05T00:34:03.063Z,19.14
2018-06-05T00:34:07.061Z,19.13
2018-06-05T00:34:11.270Z,19.13
2018-06-05T00:34:15.572Z,19.13
2018-06-05T00:34:19.881Z,19.13
2018-06-05T00:34:24.083Z,19.12
2018-06-05T00:34:28.177Z,19.13
2018-06-05T00:34:32.483Z,19.12
2018-06-05T00:34:36.802Z,19.11
2018-06-05T00:34:41.114Z,19.11
2018-06-05T00:34:45.326Z,19.11
2018-06-05T00:34:49.638Z,19.11
2018-06-05T00:34:53.950Z,19.11
2018-06-05T00:34:57.939Z,19.11
2018-06-05T00:35:02.141Z,19.11
2018-06-05T00:35:06.135Z,19.11
2018-06-05T00:35:10.343Z,19.11
2018-06-05T00:35:14.544Z,19.1
2018-06-05T00:35:18.754Z,19.09
2018-06-05T00:35:22.962Z,19.09
2018-06-05T00:35:27.267Z,19.09
2018-06-05T00:35:31.578Z,19.08
2018-06-05T00:35:35.885Z,19.08
2018-06-05T00:35:39.979Z,19.08
2018-06-05T00:35:59.009Z,19.07
2018-06-05T00:36:03.313Z,19.06
2018-06-05T00:36:07.406Z,19.07
2018-06-05T00:36:11.615Z,19.07
2018-06-05T00:36:15.817Z,19.06
2018-06-05T00:36:20.019Z,19.06
2018-06-05T00:36:24.008Z,19.06
2018-06-05T00:36:28.211Z,19.06
2018-06-05T00:36:32.417Z,19.05
2018-06-05T00:36:36.509Z,19.05
2018-06-05T00:36:40.707Z,19.05
2018-06-05T00:36:44.917Z,19.05
2018-06-05T00:36:49.011Z,19.04
2018-06-05T00:36:53.217Z,19.03
2018-06-05T00:36:57.528Z,19.03
2018-06-05T00:37:01.726Z,19.03
2018-06-05T00:37:06.037Z,19.02
2018-06-05T00:37:10.245Z,19.02
2018-06-05T00:37:14.461Z,19.01
2018-06-05T00:37:18.554Z,19
2018-06-05T00:37:22.871Z,19
2018-06-05T00:37:27.067Z,18.99
2018-06-05T00:37:31.269Z,18.99
2018-06-05T00:37:35.577Z,18.98
2018-06-05T00:37:39.562Z,18.98
2018-06-05T00:37:43.860Z,18.98
2018-06-05T00:37:48.170Z,18.97
2018-06-05T00:37:52.473Z,18.98
2018-06-05T00:37:56.677Z,18.96
2018-06-05T00:38:00.873Z,18.96
2018-06-05T00:38:04.973Z,18.95
2018-06-05T00:38:09.297Z,18.95
2018-06-05T00:38:13.499Z,18.94
2018-06-05T00:38:17.805Z,18.94
2018-06-05T00:38:22.113Z,18.94
2018-06-05T00:38:26.430Z,18.93
2018-06-05T00:38:30.628Z,18.92
2018-06-05T00:38:34.826Z,18.92
2018-06-05T00:38:38.816Z,18.92
2018-06-05T00:38:43.017Z,18.92
2018-06-05T00:38:47.260Z,18.92
2018-06-05T00:38:51.466Z,18.92
2018-06-05T00:38:55.779Z,18.91
2018-06-05T00:39:14.706Z,18.89
2018-06-05T00:39:18.928Z,18.89
2018-06-05T00:39:23.237Z,18.88
2018-06-05T00:39:27.229Z,18.88
2018-06-05T00:39:31.530Z,18.88
2018-06-05T00:39:35.733Z,18.87
2018-06-05T00:39:39.938Z,18.88
2018-06-05T00:39:44.145Z,18.87
2018-06-05T00:39:48.348Z,18.87
2018-06-05T00:39:52.652Z,18.87
2018-06-05T00:39:56.855Z,18.86
2018-06-05T00:40:01.167Z,18.85
2018-06-05T00:40:05.375Z,18.86
2018-06-05T00:40:09.576Z,18.85
2018-06-05T00:40:13.886Z,18.85
2018-06-05T00:40:17.995Z,18.85
2018-06-05T00:40:21.987Z,18.84
2018-06-05T00:40:26.292Z,18.84
2018-06-05T00:40:30.495Z,18.84
2018-06-05T00:40:34.479Z,18.83
2018-06-05T00:40:38.680Z,18.83
2018-06-05T00:40:42.882Z,18.83
2018-06-05T00:40:47.194Z,18.82
2018-06-05T00:40:51.499Z,18.82
2018-06-05T00:40:55.709Z,18.81
2018-06-05T00:40:59.694Z,18.81
2018-06-05T00:41:03.683Z,18.8
2018-06-05T00:41:07.989Z,18.81
2018-06-05T00:41:12.082Z,18.8
2018-06-05T00:41:16.191Z,18.79
2018-06-05T00:41:20.281Z,18.79
2018-06-05T00:41:24.488Z,18.79
2018-06-05T00:41:28.591Z,18.79
2018-06-05T00:41:32.697Z,18.79
2018-06-05T00:41:36.907Z,18.79
2018-06-05T00:41:41.119Z,18.78
2018-06-05T00:41:45.430Z,18.77
2018-06-05T00:41:49.747Z,18.78
2018-06-05T00:41:54.058Z,18.77
2018-06-05T00:41:58.372Z,18.76
2018-06-05T00:42:02.362Z,18.77
2018-06-05T00:42:06.358Z,18.76
2018-06-05T00:42:10.463Z,18.76
2018-06-05T00:42:14.668Z,18.76
2018-06-05T00:42:18.764Z,18.76
2018-06-05T00:42:23.086Z,18.75
2018-06-05T00:42:27.404Z,18.76
2018-06-05T00:42:31.712Z,18.75
2018-06-05T00:42:35.912Z,18.74
2018-06-05T00:42:40.210Z,18.75
2018-06-05T00:42:44.413Z,18.75
2018-06-05T00:42:48.615Z,18.74
2018-06-05T00:42:52.929Z,18.74
2018-06-05T00:42:57.133Z,18.74
2018-06-05T00:43:01.456Z,18.74
2018-06-05T00:43:05.342Z,18.73
2018-06-05T00:43:09.556Z,18.73
2018-06-05T00:43:13.756Z,18.73
2018-06-05T00:43:17.852Z,18.72
2018-06-05T00:43:22.062Z,18.73
2018-06-05T00:43:26.362Z,18.71
2018-06-05T00:43:30.567Z,18.72
2018-06-05T00:43:34.781Z,18.73
2018-06-05T00:43:38.987Z,18.72
2018-06-05T00:43:43.196Z,18.71
2018-06-05T00:43:47.507Z,18.71
2018-06-05T00:43:51.718Z,18.71
2018-06-05T00:43:55.937Z,18.71
2018-06-05T00:44:00.248Z,18.71
2018-06-05T00:44:04.460Z,18.71
2018-06-05T00:44:08.778Z,18.7
2018-06-05T00:44:12.768Z,18.71
2018-06-05T00:44:16.871Z,18.7
2018-06-05T00:44:21.181Z,18.7
2018-06-05T00:44:25.492Z,18.7
2018-06-05T00:44:29.800Z,18.71
2018-06-05T00:44:34.005Z,18.69
2018-06-05T00:44:38.213Z,18.7
2018-06-05T00:44:42.419Z,18.7
2018-06-05T00:44:46.723Z,18.7
2018-06-05T00:44:50.931Z,18.69
2018-06-05T00:44:55.131Z,18.69
2018-06-05T00:44:59.335Z,18.69
2018-06-05T00:45:03.331Z,18.69
2018-06-05T00:45:07.329Z,18.7
2018-06-05T00:45:11.527Z,18.69
2018-06-05T00:45:15.624Z,18.68
2018-06-05T00:45:19.925Z,18.68
2018-06-05T00:45:24.123Z,18.68
2018-06-05T00:45:28.323Z,18.68
2018-06-05T00:45:32.531Z,18.68
2018-06-05T00:45:36.841Z,18.68
2018-06-05T00:45:40.841Z,18.68
2018-06-05T00:45:44.937Z,18.67
2018-06-05T00:45:49.249Z,18.67
2018-06-05T00:45:53.556Z,18.67
2018-06-05T00:45:57.868Z,18.66
2018-06-05T00:46:02.073Z,18.67
2018-06-05T00:46:05.900Z,18.67
2018-06-05T00:46:28.936Z,18.65
2018-06-05T00:46:33.140Z,18.65
2018-06-05T00:46:37.446Z,18.65
2018-06-05T00:46:41.546Z,18.65
2018-06-05T00:46:45.751Z,18.64
2018-06-05T00:46:50.068Z,18.64
2018-06-05T00:46:54.265Z,18.64
2018-06-05T00:46:58.574Z,18.64
2018-06-05T00:47:02.884Z,18.64
2018-06-05T00:47:21.921Z,18.62
2018-06-05T00:47:26.229Z,18.62
2018-06-05T00:47:30.428Z,18.62
2018-06-05T00:47:34.572Z,18.62
2018-06-05T00:47:38.672Z,18.62
2018-06-05T00:47:42.874Z,18.62
2018-06-05T00:47:47.079Z,18.61
2018-06-05T00:47:51.400Z,18.62
2018-06-05T00:47:55.713Z,18.62
2018-06-05T00:48:00.032Z,18.61
2018-06-05T00:48:04.125Z,18.61
2018-06-05T00:48:08.327Z,18.62
2018-06-05T00:48:12.531Z,18.61
2018-06-05T00:48:16.743Z,18.62
2018-06-05T00:48:21.067Z,18.62
2018-06-05T00:48:25.272Z,18.62
2018-06-05T00:48:29.482Z,18.61
2018-06-05T00:48:33.688Z,18.62
2018-06-05T00:48:37.996Z,18.61
2018-06-05T00:48:42.264Z,18.62
2018-06-05T00:48:46.463Z,18.62
2018-06-05T00:48:50.448Z,18.62
2018-06-05T00:48:54.756Z,18.62
2018-06-05T00:48:59.062Z,18.62
2018-06-05T00:49:03.266Z,18.62
2018-06-05T00:49:22.412Z,18.61
2018-06-05T00:49:26.649Z,18.61
2018-06-05T00:49:30.961Z,18.62
2018-06-05T00:49:35.267Z,18.62
2018-06-05T00:49:39.579Z,18.62
2018-06-05T00:49:43.779Z,18.62
2018-06-05T00:49:47.984Z,18.62
2018-06-05T00:49:52.289Z,18.63
2018-06-05T00:49:56.600Z,18.63
2018-06-05T00:50:00.910Z,18.62
2018-06-05T00:50:04.911Z,18.63
2018-06-05T00:50:09.012Z,18.62
2018-06-05T00:50:28.157Z,18.64
2018-06-05T00:50:32.463Z,18.64
2018-06-05T00:50:36.563Z,18.63
2018-06-05T00:50:40.658Z,18.63
2018-06-05T00:50:44.975Z,18.64
2018-06-05T00:50:49.180Z,18.63
2018-06-05T00:50:53.382Z,18.64
2018-06-05T00:50:57.591Z,18.63
2018-06-05T00:51:01.920Z,18.64
2018-06-05T00:51:05.803Z,18.64
2018-06-05T00:51:10.007Z,18.64
2018-06-05T00:51:14.103Z,18.64
2018-06-05T00:51:18.310Z,18.64
2018-06-05T00:51:22.513Z,18.64
2018-06-05T00:51:26.715Z,18.65
2018-06-05T00:51:30.926Z,18.64
2018-06-05T00:51:35.126Z,18.64
2018-06-05T00:51:39.221Z,18.65
2018-06-05T00:51:43.427Z,18.65
2018-06-05T00:51:47.734Z,18.66
2018-06-05T00:51:51.971Z,18.65
2018-06-05T00:51:56.072Z,18.64
2018-06-05T00:52:00.377Z,18.65
2018-06-05T00:52:04.364Z,18.66
2018-06-05T00:52:08.463Z,18.65
2018-06-05T00:52:12.775Z,18.64
2018-06-05T00:52:16.984Z,18.65
2018-06-05T00:52:21.190Z,18.64
2018-06-05T00:52:25.387Z,18.65
2018-06-05T00:52:29.582Z,18.64
2018-06-05T00:52:33.780Z,18.65
2018-06-05T00:52:37.978Z,18.65
2018-06-05T00:52:42.295Z,18.65
2018-06-05T00:53:01.435Z,18.65
2018-06-05T00:53:05.540Z,18.65
2018-06-05T00:53:09.530Z,18.65
2018-06-05T00:53:13.736Z,18.64
2018-06-05T00:53:17.934Z,18.64
2018-06-05T00:53:22.151Z,18.66
2018-06-05T00:53:26.352Z,18.65
2018-06-05T00:53:30.660Z,18.65
2018-06-05T00:53:34.862Z,18.65
2018-06-05T00:53:39.059Z,18.66
2018-06-05T00:53:43.372Z,18.65
2018-06-05T00:53:47.573Z,18.65
2018-06-05T00:53:51.772Z,18.66
2018-06-05T00:53:56.120Z,18.65
2018-06-05T00:54:00.426Z,18.66
2018-06-05T00:54:04.629Z,18.66
2018-06-05T00:54:08.837Z,18.65
2018-06-05T00:54:12.947Z,18.66
2018-06-05T00:54:17.256Z,18.66
2018-06-05T00:54:21.453Z,18.67
2018-06-05T00:54:25.654Z,18.66
2018-06-05T00:54:29.851Z,18.65
2018-06-05T00:54:34.053Z,18.66
2018-06-05T00:54:38.253Z,18.66
2018-06-05T00:54:42.559Z,18.66
2018-06-05T00:54:46.768Z,18.67
2018-06-05T00:54:51.078Z,18.67
2018-06-05T00:54:55.276Z,18.67
2018-06-05T00:54:59.585Z,18.67
2018-06-05T00:55:03.798Z,18.67
2018-06-05T00:55:08.107Z,18.67
2018-06-05T00:55:12.360Z,18.67
2018-06-05T00:55:16.670Z,18.67
2018-06-05T00:55:20.869Z,18.67
2018-06-05T00:55:24.961Z,18.68
2018-06-05T00:55:29.276Z,18.68
2018-06-05T00:55:33.475Z,18.68
2018-06-05T00:55:37.464Z,18.68
2018-06-05T00:55:41.676Z,18.68
2018-06-05T00:55:45.874Z,18.68
2018-06-05T00:55:50.086Z,18.68
2018-06-05T00:55:54.290Z,18.69
2018-06-05T00:55:58.389Z,18.69
2018-06-05T00:56:02.843Z,18.68
2018-06-05T00:56:06.837Z,18.69
2018-06-05T00:56:10.823Z,18.69
2018-06-05T00:56:15.023Z,18.69
2018-06-05T00:56:18.905Z,18.69
2018-06-05T00:56:23.103Z,18.69
2018-06-05T00:56:27.094Z,18.69
2018-06-05T00:56:31.190Z,18.7
2018-06-05T00:56:35.390Z,18.7
2018-06-05T00:56:39.587Z,18.7
2018-06-05T00:56:43.793Z,18.7
2018-06-05T00:56:48.112Z,18.7
2018-06-05T00:56:52.317Z,18.71
2018-06-05T00:56:56.514Z,18.71
2018-06-05T00:57:00.614Z,18.7
2018-06-05T00:57:05.074Z,18.71
2018-06-05T00:57:09.381Z,18.72
2018-06-05T00:57:13.591Z,18.72
2018-06-05T00:57:17.579Z,18.72
2018-06-05T00:57:21.889Z,18.72
2018-06-05T00:57:26.197Z,18.72
2018-06-05T00:57:30.542Z,18.72
2018-06-05T00:57:34.847Z,18.73
2018-06-05T00:57:39.047Z,18.73
2018-06-05T00:57:43.356Z,18.73
2018-06-05T00:57:47.672Z,18.73
2018-06-05T00:57:51.886Z,18.74
2018-06-05T00:57:56.187Z,18.74
2018-06-05T00:58:00.427Z,18.73
2018-06-05T00:58:04.521Z,18.74
2018-06-05T00:58:08.296Z,18.75